Aviation Digital Data Service (ADDS)

Output produced by METARs form (2011 UTC 20 August 2019)
found at http://www.aviationweather.gov/metar/data/
 
Forecast for: WIII (SOEKARNO-HATTA I, ID)
Text: TAF WIII 201700Z 2018/2124 19005KT 4000 HZ FEW020
Forecast period: 1800 UTC 20 August 2019 to 0000 UTC 21 August 2019
Forecast type: FROM: standard forecast or significant change
Winds: from the S (190 degrees) at 6 MPH (5 knots; 2.6 m/s)
Visibility: 2.49 miles (4.01 km)
Ceiling: at least 12,000 feet AGL
Clouds: few clouds at 2000 feet AGL
Weather: HZ  (haze)
Text: BECMG 2100/2102 07010KT 9000 NSW
Forecast period: 0000 UTC 21 August 2019 to 0000 UTC 22 August 2019
Forecast type: BECOMING: Conditions expected to become as follows by 0200 UTC 21 August 2019
Winds: from the ENE (70 degrees) at 12 MPH (10 knots; 5.1 m/s)
Visibility: 6 miles (9 km)
Ceiling: at least 12,000 feet AGL
Clouds: few clouds at 2000 feet AGL
Weather: NSW  (no significant weather)